sensor_id;sensor_type;location;lat;lon;timestamp;P1;durP1;ratioP1;P2;durP2;ratioP2
58992;SDS011;44782;0.000;0.000;2024-03-22T00:02:15;3.97;;;3.67;;
58992;SDS011;44782;0.000;0.000;2024-03-22T00:04:30;4.00;;;3.70;;
58992;SDS011;44782;0.000;0.000;2024-03-22T00:06:46;4.18;;;3.85;;
58992;SDS011;44782;0.000;0.000;2024-03-22T00:09:04;4.60;;;4.20;;
58992;SDS011;44782;0.000;0.000;2024-03-22T00:11:20;5.03;;;4.03;;
58992;SDS011;44782;0.000;0.000;2024-03-22T00:13:35;4.38;;;4.07;;
58992;SDS011;44782;0.000;0.000;2024-03-22T00:15:51;4.83;;;4.37;;
58992;SDS011;44782;0.000;0.000;2024-03-22T00:18:07;4.80;;;4.40;;
58992;SDS011;44782;0.000;0.000;2024-03-22T00:20:22;4.23;;;3.90;;
58992;SDS011;44782;0.000;0.000;2024-03-22T00:22:38;4.63;;;4.27;;
58992;SDS011;44782;0.000;0.000;2024-03-22T00:24:54;4.47;;;4.07;;
58992;SDS011;44782;0.000;0.000;2024-03-22T00:27:10;4.37;;;4.07;;
58992;SDS011;44782;0.000;0.000;2024-03-22T00:29:27;4.33;;;4.00;;
58992;SDS011;44782;0.000;0.000;2024-03-22T00:31:43;4.20;;;3.90;;
58992;SDS011;44782;0.000;0.000;2024-03-22T00:34:01;4.47;;;4.07;;
58992;SDS011;44782;0.000;0.000;2024-03-22T00:36:21;4.20;;;3.90;;
58992;SDS011;44782;0.000;0.000;2024-03-22T00:38:37;4.77;;;4.37;;
58992;SDS011;44782;0.000;0.000;2024-03-22T00:40:58;4.17;;;3.87;;
58992;SDS011;44782;0.000;0.000;2024-03-22T00:43:14;4.20;;;3.90;;
58992;SDS011;44782;0.000;0.000;2024-03-22T00:45:32;4.23;;;3.83;;
58992;SDS011;44782;0.000;0.000;2024-03-22T00:47:52;4.20;;;3.90;;
58992;SDS011;44782;0.000;0.000;2024-03-22T00:50:08;4.10;;;3.80;;
58992;SDS011;44782;0.000;0.000;2024-03-22T00:52:24;4.00;;;3.60;;
58992;SDS011;44782;0.000;0.000;2024-03-22T00:54:40;4.40;;;4.10;;
58992;SDS011;44782;0.000;0.000;2024-03-22T00:56:58;4.33;;;4.03;;
58992;SDS011;44782;0.000;0.000;2024-03-22T00:59:14;4.10;;;3.80;;
58992;SDS011;44782;0.000;0.000;2024-03-22T01:01:30;4.37;;;3.97;;
58992;SDS011;44782;0.000;0.000;2024-03-22T01:03:48;4.57;;;4.27;;
58992;SDS011;44782;0.000;0.000;2024-03-22T01:06:04;4.27;;;3.87;;
58992;SDS011;44782;0.000;0.000;2024-03-22T01:08:19;4.30;;;4.00;;
58992;SDS011;44782;0.000;0.000;2024-03-22T01:10:49;4.30;;;3.93;;
58992;SDS011;44782;0.000;0.000;2024-03-22T01:13:06;4.73;;;4.33;;
58992;SDS011;44782;0.000;0.000;2024-03-22T01:15:26;4.60;;;4.20;;
58992;SDS011;44782;0.000;0.000;2024-03-22T01:17:42;4.47;;;4.17;;
58992;SDS011;44782;0.000;0.000;2024-03-22T01:20:02;4.47;;;4.07;;
58992;SDS011;44782;0.000;0.000;2024-03-22T01:22:18;4.20;;;3.90;;
58992;SDS011;44782;0.000;0.000;2024-03-22T01:24:38;4.50;;;4.20;;
58992;SDS011;44782;0.000;0.000;2024-03-22T01:26:53;4.40;;;4.00;;
58992;SDS011;44782;0.000;0.000;2024-03-22T01:29:29;4.33;;;3.83;;
58992;SDS011;44782;0.000;0.000;2024-03-22T01:31:49;4.13;;;3.83;;
58992;SDS011;44782;0.000;0.000;2024-03-22T01:34:09;4.80;;;4.50;;
58992;SDS011;44782;0.000;0.000;2024-03-22T01:36:27;4.47;;;4.17;;
58992;SDS011;44782;0.000;0.000;2024-03-22T01:38:45;4.40;;;4.10;;
58992;SDS011;44782;0.000;0.000;2024-03-22T01:41:01;4.67;;;4.27;;
58992;SDS011;44782;0.000;0.000;2024-03-22T01:43:19;4.23;;;3.93;;
58992;SDS011;44782;0.000;0.000;2024-03-22T01:45:40;4.90;;;4.50;;
58992;SDS011;44782;0.000;0.000;2024-03-22T01:47:56;4.50;;;4.20;;
58992;SDS011;44782;0.000;0.000;2024-03-22T01:50:14;4.77;;;4.37;;
58992;SDS011;44782;0.000;0.000;2024-03-22T01:52:30;4.50;;;4.13;;
58992;SDS011;44782;0.000;0.000;2024-03-22T01:54:52;4.80;;;4.40;;
58992;SDS011;44782;0.000;0.000;2024-03-22T01:57:17;4.83;;;4.43;;
58992;SDS011;44782;0.000;0.000;2024-03-22T01:59:38;4.83;;;4.43;;
58992;SDS011;44782;0.000;0.000;2024-03-22T02:02:00;4.47;;;4.10;;
58992;SDS011;44782;0.000;0.000;2024-03-22T02:04:17;5.00;;;4.60;;
58992;SDS011;44782;0.000;0.000;2024-03-22T02:06:51;4.63;;;4.23;;
58992;SDS011;44782;0.000;0.000;2024-03-22T02:09:07;4.10;;;3.80;;
58992;SDS011;44782;0.000;0.000;2024-03-22T02:11:25;4.83;;;4.43;;
58992;SDS011;44782;0.000;0.000;2024-03-22T02:13:41;4.50;;;4.20;;
58992;SDS011;44782;0.000;0.000;2024-03-22T02:16:02;4.80;;;4.40;;
58992;SDS011;44782;0.000;0.000;2024-03-22T02:18:18;4.47;;;4.17;;
58992;SDS011;44782;0.000;0.000;2024-03-22T02:20:34;4.27;;;3.97;;
58992;SDS011;44782;0.000;0.000;2024-03-22T02:22:49;3.80;;;3.50;;
58992;SDS011;44782;0.000;0.000;2024-03-22T02:25:05;4.30;;;4.00;;
58992;SDS011;44782;0.000;0.000;2024-03-22T02:27:22;4.40;;;4.03;;
58992;SDS011;44782;0.000;0.000;2024-03-22T02:29:40;4.27;;;3.97;;
58992;SDS011;44782;0.000;0.000;2024-03-22T02:31:55;4.20;;;3.90;;
58992;SDS011;44782;0.000;0.000;2024-03-22T02:34:13;4.30;;;4.00;;
58992;SDS011;44782;0.000;0.000;2024-03-22T02:36:28;4.40;;;4.10;;
58992;SDS011;44782;0.000;0.000;2024-03-22T02:38:44;4.60;;;4.20;;
58992;SDS011;44782;0.000;0.000;2024-03-22T02:41:00;4.00;;;3.70;;
58992;SDS011;44782;0.000;0.000;2024-03-22T02:43:16;4.30;;;4.00;;
58992;SDS011;44782;0.000;0.000;2024-03-22T02:45:36;3.93;;;3.63;;
58992;SDS011;44782;0.000;0.000;2024-03-22T02:47:51;4.07;;;3.77;;
58992;SDS011;44782;0.000;0.000;2024-03-22T02:50:07;4.00;;;3.70;;
58992;SDS011;44782;0.000;0.000;2024-03-22T02:52:23;4.10;;;3.80;;
58992;SDS011;44782;0.000;0.000;2024-03-22T02:54:42;4.27;;;3.97;;
58992;SDS011;44782;0.000;0.000;2024-03-22T02:56:58;4.50;;;4.10;;
58992;SDS011;44782;0.000;0.000;2024-03-22T02:59:14;3.93;;;3.67;;
58992;SDS011;44782;0.000;0.000;2024-03-22T03:01:30;4.20;;;3.90;;
58992;SDS011;44782;0.000;0.000;2024-03-22T03:03:45;3.63;;;3.43;;
58992;SDS011;44782;0.000;0.000;2024-03-22T03:06:01;4.07;;;3.77;;
58992;SDS011;44782;0.000;0.000;2024-03-22T03:08:17;4.00;;;3.70;;
58992;SDS011;44782;0.000;0.000;2024-03-22T03:10:33;4.40;;;4.07;;
58992;SDS011;44782;0.000;0.000;2024-03-22T03:12:48;4.40;;;4.10;;
58992;SDS011;44782;0.000;0.000;2024-03-22T03:15:04;4.40;;;4.10;;
58992;SDS011;44782;0.000;0.000;2024-03-22T03:17:20;4.30;;;4.00;;
58992;SDS011;44782;0.000;0.000;2024-03-22T03:19:36;4.07;;;3.77;;
58992;SDS011;44782;0.000;0.000;2024-03-22T03:21:52;3.60;;;3.30;;
58992;SDS011;44782;0.000;0.000;2024-03-22T03:24:07;3.83;;;3.53;;
58992;SDS011;44782;0.000;0.000;2024-03-22T03:26:24;4.53;;;4.13;;
58992;SDS011;44782;0.000;0.000;2024-03-22T03:28:40;4.00;;;3.60;;
58992;SDS011;44782;0.000;0.000;2024-03-22T03:30:55;4.07;;;3.77;;
58992;SDS011;44782;0.000;0.000;2024-03-22T03:33:11;3.80;;;3.50;;
58992;SDS011;44782;0.000;0.000;2024-03-22T03:35:26;4.10;;;3.70;;
58992;SDS011;44782;0.000;0.000;2024-03-22T03:37:44;4.20;;;3.90;;
58992;SDS011;44782;0.000;0.000;2024-03-22T03:39:59;4.07;;;3.77;;
58992;SDS011;44782;0.000;0.000;2024-03-22T03:42:15;3.87;;;3.57;;
58992;SDS011;44782;0.000;0.000;2024-03-22T03:44:31;4.20;;;3.80;;
58992;SDS011;44782;0.000;0.000;2024-03-22T03:46:46;3.97;;;3.67;;
58992;SDS011;44782;0.000;0.000;2024-03-22T03:49:02;4.00;;;3.70;;
58992;SDS011;44782;0.000;0.000;2024-03-22T03:51:17;3.87;;;3.57;;
58992;SDS011;44782;0.000;0.000;2024-03-22T03:53:33;4.17;;;3.80;;
58992;SDS011;44782;0.000;0.000;2024-03-22T03:55:49;3.93;;;3.57;;
58992;SDS011;44782;0.000;0.000;2024-03-22T03:58:04;4.20;;;3.90;;
58992;SDS011;44782;0.000;0.000;2024-03-22T04:00:22;4.20;;;3.90;;
58992;SDS011;44782;0.000;0.000;2024-03-22T04:02:37;3.90;;;3.60;;
58992;SDS011;44782;0.000;0.000;2024-03-22T04:04:53;3.80;;;3.50;;
58992;SDS011;44782;0.000;0.000;2024-03-22T04:07:09;4.10;;;3.80;;
58992;SDS011;44782;0.000;0.000;2024-03-22T04:09:24;4.13;;;3.83;;
58992;SDS011;44782;0.000;0.000;2024-03-22T04:11:40;4.30;;;4.00;;
58992;SDS011;44782;0.000;0.000;2024-03-22T04:13:56;4.13;;;3.83;;
58992;SDS011;44782;0.000;0.000;2024-03-22T04:16:11;4.30;;;4.00;;
58992;SDS011;44782;0.000;0.000;2024-03-22T04:18:27;4.40;;;4.00;;
58992;SDS011;44782;0.000;0.000;2024-03-22T04:20:42;4.33;;;3.83;;
58992;SDS011;44782;0.000;0.000;2024-03-22T04:23:08;4.60;;;4.20;;
58992;SDS011;44782;0.000;0.000;2024-03-22T04:25:23;3.93;;;3.63;;
58992;SDS011;44782;0.000;0.000;2024-03-22T04:27:39;4.50;;;4.17;;
58992;SDS011;44782;0.000;0.000;2024-03-22T04:29:55;4.50;;;4.10;;
58992;SDS011;44782;0.000;0.000;2024-03-22T04:32:11;3.90;;;3.60;;
58992;SDS011;44782;0.000;0.000;2024-03-22T04:34:26;3.93;;;3.63;;
58992;SDS011;44782;0.000;0.000;2024-03-22T04:36:42;3.80;;;3.50;;
58992;SDS011;44782;0.000;0.000;2024-03-22T04:38:58;3.43;;;3.23;;
58992;SDS011;44782;0.000;0.000;2024-03-22T04:41:14;3.80;;;3.50;;
58992;SDS011;44782;0.000;0.000;2024-03-22T04:43:30;3.70;;;3.40;;
58992;SDS011;44782;0.000;0.000;2024-03-22T04:45:46;3.43;;;3.23;;
58992;SDS011;44782;0.000;0.000;2024-03-22T04:48:03;3.87;;;3.57;;
58992;SDS011;44782;0.000;0.000;2024-03-22T04:50:20;3.30;;;3.10;;
58992;SDS011;44782;0.000;0.000;2024-03-22T04:52:35;2.97;;;2.77;;
58992;SDS011;44782;0.000;0.000;2024-03-22T04:54:51;2.50;;;2.30;;
58992;SDS011;44782;0.000;0.000;2024-03-22T04:57:07;2.33;;;2.23;;
58992;SDS011;44782;0.000;0.000;2024-03-22T04:59:22;2.57;;;2.37;;
58992;SDS011;44782;0.000;0.000;2024-03-22T05:01:38;2.60;;;2.40;;
58992;SDS011;44782;0.000;0.000;2024-03-22T05:03:54;2.40;;;2.30;;
58992;SDS011;44782;0.000;0.000;2024-03-22T05:06:10;2.20;;;2.10;;
58992;SDS011;44782;0.000;0.000;2024-03-22T05:08:25;2.23;;;2.10;;
58992;SDS011;44782;0.000;0.000;2024-03-22T05:10:41;2.33;;;2.20;;
58992;SDS011;44782;0.000;0.000;2024-03-22T05:12:57;2.10;;;2.00;;
58992;SDS011;44782;0.000;0.000;2024-03-22T05:15:13;2.20;;;2.00;;
58992;SDS011;44782;0.000;0.000;2024-03-22T05:17:29;2.00;;;1.90;;
58992;SDS011;44782;0.000;0.000;2024-03-22T05:19:46;2.07;;;1.90;;
58992;SDS011;44782;0.000;0.000;2024-03-22T05:22:02;2.00;;;1.90;;
58992;SDS011;44782;0.000;0.000;2024-03-22T05:24:18;1.97;;;1.87;;
58992;SDS011;44782;0.000;0.000;2024-03-22T05:26:33;2.10;;;1.90;;
58992;SDS011;44782;0.000;0.000;2024-03-22T05:28:51;2.17;;;2.07;;
58992;SDS011;44782;0.000;0.000;2024-03-22T05:31:07;2.20;;;2.10;;
58992;SDS011;44782;0.000;0.000;2024-03-22T05:33:23;1.97;;;1.87;;
58992;SDS011;44782;0.000;0.000;2024-03-22T05:35:38;2.20;;;2.10;;
58992;SDS011;44782;0.000;0.000;2024-03-22T05:37:54;2.20;;;2.10;;
58992;SDS011;44782;0.000;0.000;2024-03-22T05:40:10;2.53;;;2.33;;
58992;SDS011;44782;0.000;0.000;2024-03-22T05:42:27;2.40;;;2.20;;
58992;SDS011;44782;0.000;0.000;2024-03-22T05:44:44;2.13;;;2.00;;
58992;SDS011;44782;0.000;0.000;2024-03-22T05:47:00;2.03;;;1.92;;
58992;SDS011;44782;0.000;0.000;2024-03-22T05:49:16;2.20;;;2.10;;
58992;SDS011;44782;0.000;0.000;2024-03-22T05:51:32;2.23;;;2.03;;
58992;SDS011;44782;0.000;0.000;2024-03-22T05:53:48;2.72;;;2.53;;
58992;SDS011;44782;0.000;0.000;2024-03-22T05:56:04;2.67;;;2.47;;
58992;SDS011;44782;0.000;0.000;2024-03-22T05:58:23;2.80;;;2.30;;
58992;SDS011;44782;0.000;0.000;2024-03-22T06:00:39;2.42;;;2.22;;
58992;SDS011;44782;0.000;0.000;2024-03-22T06:02:55;2.67;;;2.47;;
58992;SDS011;44782;0.000;0.000;2024-03-22T06:05:13;3.40;;;2.50;;
58992;SDS011;44782;0.000;0.000;2024-03-22T06:07:31;3.33;;;2.50;;
58992;SDS011;44782;0.000;0.000;2024-03-22T06:09:55;2.90;;;2.70;;
58992;SDS011;44782;0.000;0.000;2024-03-22T06:12:11;3.30;;;3.05;;
58992;SDS011;44782;0.000;0.000;2024-03-22T06:14:30;2.70;;;2.50;;
58992;SDS011;44782;0.000;0.000;2024-03-22T06:16:46;3.10;;;2.90;;
58992;SDS011;44782;0.000;0.000;2024-03-22T06:19:02;3.50;;;3.20;;
58992;SDS011;44782;0.000;0.000;2024-03-22T06:21:18;3.35;;;3.15;;
58992;SDS011;44782;0.000;0.000;2024-03-22T06:23:40;3.50;;;3.22;;
58992;SDS011;44782;0.000;0.000;2024-03-22T06:25:56;3.83;;;3.53;;
58992;SDS011;44782;0.000;0.000;2024-03-22T06:28:12;4.03;;;3.63;;
58992;SDS011;44782;0.000;0.000;2024-03-22T06:30:29;3.83;;;3.40;;
58992;SDS011;44782;0.000;0.000;2024-03-22T06:32:45;4.10;;;3.80;;
58992;SDS011;44782;0.000;0.000;2024-03-22T06:35:00;4.35;;;3.95;;
58992;SDS011;44782;0.000;0.000;2024-03-22T06:37:19;3.78;;;3.47;;
58992;SDS011;44782;0.000;0.000;2024-03-22T06:39:44;4.25;;;3.85;;
58992;SDS011;44782;0.000;0.000;2024-03-22T06:42:02;3.80;;;3.50;;
58992;SDS011;44782;0.000;0.000;2024-03-22T06:44:19;4.38;;;3.97;;
58992;SDS011;44782;0.000;0.000;2024-03-22T06:46:34;7.30;;;4.00;;
58992;SDS011;44782;0.000;0.000;2024-03-22T06:48:51;3.90;;;3.60;;
58992;SDS011;44782;0.000;0.000;2024-03-22T06:51:10;4.40;;;4.00;;
58992;SDS011;44782;0.000;0.000;2024-03-22T06:53:25;4.35;;;3.70;;
58992;SDS011;44782;0.000;0.000;2024-03-22T06:55:45;3.92;;;3.60;;
58992;SDS011;44782;0.000;0.000;2024-03-22T06:58:04;3.85;;;3.55;;
58992;SDS011;44782;0.000;0.000;2024-03-22T07:00:24;4.80;;;4.40;;
58992;SDS011;44782;0.000;0.000;2024-03-22T07:02:43;5.38;;;4.88;;
58992;SDS011;44782;0.000;0.000;2024-03-22T07:04:59;4.85;;;4.45;;
58992;SDS011;44782;0.000;0.000;2024-03-22T07:07:15;5.25;;;4.75;;
58992;SDS011;44782;0.000;0.000;2024-03-22T07:09:33;6.45;;;5.82;;
58992;SDS011;44782;0.000;0.000;2024-03-22T07:11:49;4.82;;;4.43;;
58992;SDS011;44782;0.000;0.000;2024-03-22T07:14:06;5.78;;;5.07;;
58992;SDS011;44782;0.000;0.000;2024-03-22T07:16:22;6.57;;;5.60;;
58992;SDS011;44782;0.000;0.000;2024-03-22T07:18:41;5.95;;;5.35;;
58992;SDS011;44782;0.000;0.000;2024-03-22T07:20:57;6.30;;;5.65;;
58992;SDS011;44782;0.000;0.000;2024-03-22T07:23:16;6.10;;;5.45;;
58992;SDS011;44782;0.000;0.000;2024-03-22T07:25:31;7.15;;;6.47;;
58992;SDS011;44782;0.000;0.000;2024-03-22T07:27:47;6.85;;;6.25;;
58992;SDS011;44782;0.000;0.000;2024-03-22T07:30:04;6.18;;;5.68;;
58992;SDS011;44782;0.000;0.000;2024-03-22T07:32:20;5.90;;;5.32;;
58992;SDS011;44782;0.000;0.000;2024-03-22T07:34:36;6.80;;;6.20;;
58992;SDS011;44782;0.000;0.000;2024-03-22T07:36:51;5.78;;;5.28;;
58992;SDS011;44782;0.000;0.000;2024-03-22T07:39:08;6.07;;;5.57;;
58992;SDS011;44782;0.000;0.000;2024-03-22T07:41:24;6.57;;;5.97;;
58992;SDS011;44782;0.000;0.000;2024-03-22T07:43:40;6.60;;;6.00;;
58992;SDS011;44782;0.000;0.000;2024-03-22T07:45:56;7.07;;;6.47;;
58992;SDS011;44782;0.000;0.000;2024-03-22T07:48:11;6.93;;;6.35;;
58992;SDS011;44782;0.000;0.000;2024-03-22T07:50:27;6.40;;;5.90;;
58992;SDS011;44782;0.000;0.000;2024-03-22T07:52:42;6.97;;;6.47;;
58992;SDS011;44782;0.000;0.000;2024-03-22T07:54:58;6.70;;;6.10;;
58992;SDS011;44782;0.000;0.000;2024-03-22T07:57:14;6.50;;;5.90;;
58992;SDS011;44782;0.000;0.000;2024-03-22T07:59:29;6.75;;;6.25;;
58992;SDS011;44782;0.000;0.000;2024-03-22T08:01:45;6.82;;;6.22;;
58992;SDS011;44782;0.000;0.000;2024-03-22T08:04:02;6.70;;;6.10;;
58992;SDS011;44782;0.000;0.000;2024-03-22T08:06:17;6.15;;;5.65;;
58992;SDS011;44782;0.000;0.000;2024-03-22T08:08:33;6.05;;;5.55;;
58992;SDS011;44782;0.000;0.000;2024-03-22T08:10:48;6.37;;;5.77;;
58992;SDS011;44782;0.000;0.000;2024-03-22T08:13:04;6.07;;;5.47;;
58992;SDS011;44782;0.000;0.000;2024-03-22T08:15:20;6.30;;;5.70;;
58992;SDS011;44782;0.000;0.000;2024-03-22T08:17:35;5.73;;;5.30;;
58992;SDS011;44782;0.000;0.000;2024-03-22T08:19:51;5.63;;;5.10;;
58992;SDS011;44782;0.000;0.000;2024-03-22T08:22:08;5.80;;;5.07;;
58992;SDS011;44782;0.000;0.000;2024-03-22T08:24:24;5.73;;;5.23;;
58992;SDS011;44782;0.000;0.000;2024-03-22T08:26:40;5.13;;;4.73;;
58992;SDS011;44782;0.000;0.000;2024-03-22T08:28:55;6.00;;;5.50;;
58992;SDS011;44782;0.000;0.000;2024-03-22T08:31:11;5.67;;;5.17;;
58992;SDS011;44782;0.000;0.000;2024-03-22T08:33:27;5.40;;;4.90;;
58992;SDS011;44782;0.000;0.000;2024-03-22T08:35:42;5.70;;;5.20;;
58992;SDS011;44782;0.000;0.000;2024-03-22T08:37:58;5.33;;;4.93;;
58992;SDS011;44782;0.000;0.000;2024-03-22T08:40:13;5.63;;;5.17;;
58992;SDS011;44782;0.000;0.000;2024-03-22T08:42:29;5.40;;;4.90;;
58992;SDS011;44782;0.000;0.000;2024-03-22T08:44:45;5.22;;;4.82;;
58992;SDS011;44782;0.000;0.000;2024-03-22T08:47:01;5.00;;;4.60;;
58992;SDS011;44782;0.000;0.000;2024-03-22T08:49:16;5.43;;;5.03;;
58992;SDS011;44782;0.000;0.000;2024-03-22T08:51:34;5.07;;;4.67;;
58992;SDS011;44782;0.000;0.000;2024-03-22T08:53:49;6.13;;;5.53;;
58992;SDS011;44782;0.000;0.000;2024-03-22T08:56:05;5.43;;;5.03;;
58992;SDS011;44782;0.000;0.000;2024-03-22T08:58:21;5.32;;;4.82;;
58992;SDS011;44782;0.000;0.000;2024-03-22T09:00:36;5.20;;;4.80;;
58992;SDS011;44782;0.000;0.000;2024-03-22T09:02:52;5.53;;;5.10;;
58992;SDS011;44782;0.000;0.000;2024-03-22T09:05:08;5.28;;;4.88;;
58992;SDS011;44782;0.000;0.000;2024-03-22T09:07:24;4.97;;;4.60;;
58992;SDS011;44782;0.000;0.000;2024-03-22T09:09:45;4.93;;;4.53;;
58992;SDS011;44782;0.000;0.000;2024-03-22T09:12:02;5.20;;;4.80;;
58992;SDS011;44782;0.000;0.000;2024-03-22T09:14:18;5.05;;;4.65;;
58992;SDS011;44782;0.000;0.000;2024-03-22T09:16:34;5.00;;;4.60;;
58992;SDS011;44782;0.000;0.000;2024-03-22T09:18:49;4.70;;;4.30;;
58992;SDS011;44782;0.000;0.000;2024-03-22T09:21:06;5.15;;;4.75;;
58992;SDS011;44782;0.000;0.000;2024-03-22T09:23:23;4.85;;;4.45;;
58992;SDS011;44782;0.000;0.000;2024-03-22T09:25:39;4.70;;;4.30;;
58992;SDS011;44782;0.000;0.000;2024-03-22T09:28:01;4.65;;;4.32;;
58992;SDS011;44782;0.000;0.000;2024-03-22T09:30:17;4.90;;;4.50;;
58992;SDS011;44782;0.000;0.000;2024-03-22T09:32:33;4.68;;;4.28;;
58992;SDS011;44782;0.000;0.000;2024-03-22T09:34:49;4.72;;;4.32;;
58992;SDS011;44782;0.000;0.000;2024-03-22T09:37:07;4.80;;;4.40;;
58992;SDS011;44782;0.000;0.000;2024-03-22T09:39:23;4.30;;;4.00;;
58992;SDS011;44782;0.000;0.000;2024-03-22T09:41:41;5.07;;;4.60;;
58992;SDS011;44782;0.000;0.000;2024-03-22T09:43:58;5.20;;;4.70;;
58992;SDS011;44782;0.000;0.000;2024-03-22T09:46:18;5.15;;;4.68;;
58992;SDS011;44782;0.000;0.000;2024-03-22T09:48:35;4.97;;;4.57;;
58992;SDS011;44782;0.000;0.000;2024-03-22T09:50:51;4.90;;;4.50;;
58992;SDS011;44782;0.000;0.000;2024-03-22T09:53:08;4.78;;;4.38;;
58992;SDS011;44782;0.000;0.000;2024-03-22T09:55:24;5.20;;;4.80;;
58992;SDS011;44782;0.000;0.000;2024-03-22T09:57:40;5.07;;;4.57;;
58992;SDS011;44782;0.000;0.000;2024-03-22T09:59:57;4.65;;;4.32;;
58992;SDS011;44782;0.000;0.000;2024-03-22T10:02:14;4.47;;;4.13;;
58992;SDS011;44782;0.000;0.000;2024-03-22T10:04:31;4.90;;;4.50;;
58992;SDS011;44782;0.000;0.000;2024-03-22T10:06:47;4.43;;;4.13;;
58992;SDS011;44782;0.000;0.000;2024-03-22T10:09:04;4.60;;;4.20;;
58992;SDS011;44782;0.000;0.000;2024-03-22T10:11:23;4.60;;;4.20;;
58992;SDS011;44782;0.000;0.000;2024-03-22T10:13:44;4.22;;;3.92;;
58992;SDS011;44782;0.000;0.000;2024-03-22T10:15:59;4.13;;;3.83;;
58992;SDS011;44782;0.000;0.000;2024-03-22T10:18:15;4.43;;;4.10;;
58992;SDS011;44782;0.000;0.000;2024-03-22T10:20:31;4.60;;;4.20;;
58992;SDS011;44782;0.000;0.000;2024-03-22T10:22:48;4.00;;;3.70;;
58992;SDS011;44782;0.000;0.000;2024-03-22T10:25:10;4.28;;;3.97;;
58992;SDS011;44782;0.000;0.000;2024-03-22T10:27:27;3.90;;;3.60;;
58992;SDS011;44782;0.000;0.000;2024-03-22T10:29:44;4.10;;;3.80;;
58992;SDS011;44782;0.000;0.000;2024-03-22T10:32:00;4.50;;;4.10;;
58992;SDS011;44782;0.000;0.000;2024-03-22T10:34:17;4.37;;;3.97;;
58992;SDS011;44782;0.000;0.000;2024-03-22T10:36:33;4.18;;;3.88;;
58992;SDS011;44782;0.000;0.000;2024-03-22T10:38:49;4.20;;;3.90;;
58992;SDS011;44782;0.000;0.000;2024-03-22T10:41:07;4.30;;;4.00;;
58992;SDS011;44782;0.000;0.000;2024-03-22T10:43:23;4.50;;;4.10;;
58992;SDS011;44782;0.000;0.000;2024-03-22T10:45:39;4.30;;;4.00;;
58992;SDS011;44782;0.000;0.000;2024-03-22T10:47:56;4.50;;;4.10;;
58992;SDS011;44782;0.000;0.000;2024-03-22T10:50:12;4.80;;;4.30;;
58992;SDS011;44782;0.000;0.000;2024-03-22T10:52:28;4.40;;;4.10;;
58992;SDS011;44782;0.000;0.000;2024-03-22T10:54:46;4.00;;;3.70;;
58992;SDS011;44782;0.000;0.000;2024-03-22T10:57:02;3.97;;;3.67;;
58992;SDS011;44782;0.000;0.000;2024-03-22T10:59:23;3.87;;;3.57;;
58992;SDS011;44782;0.000;0.000;2024-03-22T11:01:39;4.00;;;3.70;;
58992;SDS011;44782;0.000;0.000;2024-03-22T11:04:03;4.10;;;3.73;;
58992;SDS011;44782;0.000;0.000;2024-03-22T11:06:26;3.87;;;3.57;;
58992;SDS011;44782;0.000;0.000;2024-03-22T11:08:42;3.90;;;3.60;;
58992;SDS011;44782;0.000;0.000;2024-03-22T11:11:08;4.70;;;4.20;;
58992;SDS011;44782;0.000;0.000;2024-03-22T11:13:27;3.53;;;3.27;;
58992;SDS011;44782;0.000;0.000;2024-03-22T11:15:43;4.40;;;4.00;;
58992;SDS011;44782;0.000;0.000;2024-03-22T11:17:59;3.60;;;3.30;;
58992;SDS011;44782;0.000;0.000;2024-03-22T11:20:15;3.03;;;2.83;;
58992;SDS011;44782;0.000;0.000;2024-03-22T11:22:31;3.60;;;3.30;;
58992;SDS011;44782;0.000;0.000;2024-03-22T11:24:47;2.80;;;2.60;;
58992;SDS011;44782;0.000;0.000;2024-03-22T11:27:03;3.17;;;2.87;;
58992;SDS011;44782;0.000;0.000;2024-03-22T11:29:18;2.90;;;2.70;;
58992;SDS011;44782;0.000;0.000;2024-03-22T11:31:34;3.27;;;2.97;;
58992;SDS011;44782;0.000;0.000;2024-03-22T11:33:52;2.77;;;2.57;;
58992;SDS011;44782;0.000;0.000;2024-03-22T11:36:11;2.93;;;2.73;;
58992;SDS011;44782;0.000;0.000;2024-03-22T11:38:26;3.60;;;3.30;;
58992;SDS011;44782;0.000;0.000;2024-03-22T11:40:43;3.10;;;2.80;;
58992;SDS011;44782;0.000;0.000;2024-03-22T11:42:59;3.10;;;2.90;;
58992;SDS011;44782;0.000;0.000;2024-03-22T11:45:17;3.00;;;2.80;;
58992;SDS011;44782;0.000;0.000;2024-03-22T11:47:34;3.13;;;2.93;;
58992;SDS011;44782;0.000;0.000;2024-03-22T11:49:50;3.50;;;3.30;;
58992;SDS011;44782;0.000;0.000;2024-03-22T11:52:07;3.60;;;3.30;;
58992;SDS011;44782;0.000;0.000;2024-03-22T11:54:25;3.50;;;3.30;;
58992;SDS011;44782;0.000;0.000;2024-03-22T11:56:43;3.33;;;3.13;;
58992;SDS011;44782;0.000;0.000;2024-03-22T11:59:00;3.53;;;3.33;;
58992;SDS011;44782;0.000;0.000;2024-03-22T12:01:17;3.00;;;2.80;;
58992;SDS011;44782;0.000;0.000;2024-03-22T12:03:36;3.57;;;3.27;;
58992;SDS011;44782;0.000;0.000;2024-03-22T12:05:54;3.53;;;3.33;;
58992;SDS011;44782;0.000;0.000;2024-03-22T12:08:09;3.90;;;3.60;;
58992;SDS011;44782;0.000;0.000;2024-03-22T12:10:28;3.40;;;3.20;;
58992;SDS011;44782;0.000;0.000;2024-03-22T12:12:44;3.20;;;3.00;;
58992;SDS011;44782;0.000;0.000;2024-03-22T12:14:59;3.70;;;3.40;;
58992;SDS011;44782;0.000;0.000;2024-03-22T12:17:15;3.27;;;2.97;;
58992;SDS011;44782;0.000;0.000;2024-03-22T12:19:31;3.20;;;3.00;;
58992;SDS011;44782;0.000;0.000;2024-03-22T12:21:46;3.43;;;3.23;;
58992;SDS011;44782;0.000;0.000;2024-03-22T12:24:02;3.10;;;2.90;;
58992;SDS011;44782;0.000;0.000;2024-03-22T12:26:18;3.23;;;3.03;;
58992;SDS011;44782;0.000;0.000;2024-03-22T12:28:33;3.10;;;2.90;;
58992;SDS011;44782;0.000;0.000;2024-03-22T12:30:49;3.23;;;3.03;;
58992;SDS011;44782;0.000;0.000;2024-03-22T12:33:05;3.20;;;3.00;;
58992;SDS011;44782;0.000;0.000;2024-03-22T12:35:25;3.23;;;3.03;;
58992;SDS011;44782;0.000;0.000;2024-03-22T12:37:41;3.13;;;2.93;;
58992;SDS011;44782;0.000;0.000;2024-03-22T12:39:57;3.20;;;3.00;;
58992;SDS011;44782;0.000;0.000;2024-03-22T12:42:12;3.30;;;3.10;;
58992;SDS011;44782;0.000;0.000;2024-03-22T12:44:28;3.47;;;3.27;;
58992;SDS011;44782;0.000;0.000;2024-03-22T12:46:44;3.87;;;3.57;;
58992;SDS011;44782;0.000;0.000;2024-03-22T12:49:00;3.03;;;2.83;;
58992;SDS011;44782;0.000;0.000;2024-03-22T12:51:15;3.17;;;2.97;;
58992;SDS011;44782;0.000;0.000;2024-03-22T12:53:31;3.27;;;3.07;;
58992;SDS011;44782;0.000;0.000;2024-03-22T12:55:47;2.90;;;2.70;;
58992;SDS011;44782;0.000;0.000;2024-03-22T12:58:03;3.53;;;3.23;;
58992;SDS011;44782;0.000;0.000;2024-03-22T13:00:19;3.40;;;3.20;;
58992;SDS011;44782;0.000;0.000;2024-03-22T13:02:35;2.83;;;2.63;;
58992;SDS011;44782;0.000;0.000;2024-03-22T13:04:51;3.03;;;2.83;;
58992;SDS011;44782;0.000;0.000;2024-03-22T13:07:08;3.10;;;2.90;;
58992;SDS011;44782;0.000;0.000;2024-03-22T13:09:24;3.20;;;3.00;;
58992;SDS011;44782;0.000;0.000;2024-03-22T13:11:40;3.30;;;3.10;;
58992;SDS011;44782;0.000;0.000;2024-03-22T13:13:56;2.93;;;2.73;;
58992;SDS011;44782;0.000;0.000;2024-03-22T13:16:11;3.27;;;3.07;;
58992;SDS011;44782;0.000;0.000;2024-03-22T13:18:29;2.77;;;2.57;;
58992;SDS011;44782;0.000;0.000;2024-03-22T13:20:46;3.03;;;2.83;;
58992;SDS011;44782;0.000;0.000;2024-03-22T13:23:05;3.37;;;3.17;;
58992;SDS011;44782;0.000;0.000;2024-03-22T13:25:23;2.73;;;2.57;;
58992;SDS011;44782;0.000;0.000;2024-03-22T13:27:38;2.90;;;2.70;;
58992;SDS011;44782;0.000;0.000;2024-03-22T13:29:54;2.60;;;2.50;;
58992;SDS011;44782;0.000;0.000;2024-03-22T13:32:10;2.80;;;2.60;;
58992;SDS011;44782;0.000;0.000;2024-03-22T13:34:25;2.70;;;2.50;;
58992;SDS011;44782;0.000;0.000;2024-03-22T13:36:41;3.30;;;3.10;;
58992;SDS011;44782;0.000;0.000;2024-03-22T13:38:57;3.10;;;2.90;;
58992;SDS011;44782;0.000;0.000;2024-03-22T13:41:13;3.00;;;2.80;;
58992;SDS011;44782;0.000;0.000;2024-03-22T13:43:28;3.10;;;2.90;;
58992;SDS011;44782;0.000;0.000;2024-03-22T13:45:44;2.80;;;2.60;;
58992;SDS011;44782;0.000;0.000;2024-03-22T13:48:09;2.90;;;2.70;;
58992;SDS011;44782;0.000;0.000;2024-03-22T13:50:26;3.10;;;2.90;;
58992;SDS011;44782;0.000;0.000;2024-03-22T13:52:41;2.80;;;2.60;;
58992;SDS011;44782;0.000;0.000;2024-03-22T13:54:57;2.57;;;2.43;;
58992;SDS011;44782;0.000;0.000;2024-03-22T13:57:14;2.93;;;2.73;;